sensor_id;sensor_type;location;lat;lon;timestamp;pressure;altitude;pressure_sealevel;temperature;humidity
79221;BME280;68648;52.114;5.424;2023-04-25T00:02:00;101156.69;;;4.32;87.58
79221;BME280;68648;52.114;5.424;2023-04-25T00:04:27;101155.16;;;4.28;88.00
79221;BME280;68648;52.114;5.424;2023-04-25T00:06:54;101159.81;;;4.22;87.63
79221;BME280;68648;52.114;5.424;2023-04-25T00:09:21;101162.56;;;4.21;88.29
79221;BME280;68648;52.114;5.424;2023-04-25T00:11:48;101163.41;;;4.21;87.82
79221;BME280;68648;52.114;5.424;2023-04-25T00:14:14;101169.50;;;4.22;87.59
79221;BME280;68648;52.114;5.424;2023-04-25T00:16:41;101173.69;;;4.25;87.75
79221;BME280;68648;52.114;5.424;2023-04-25T00:19:10;101170.78;;;4.29;88.32
79221;BME280;68648;52.114;5.424;2023-04-25T00:21:36;101168.84;;;4.33;87.66
79221;BME280;68648;52.114;5.424;2023-04-25T00:24:07;101173.63;;;4.40;88.09
79221;BME280;68648;52.114;5.424;2023-04-25T00:26:34;101168.94;;;4.45;88.31
79221;BME280;68648;52.114;5.424;2023-04-25T00:29:02;101175.53;;;4.52;88.34
79221;BME280;68648;52.114;5.424;2023-04-25T00:31:28;101175.31;;;4.55;88.58
79221;BME280;68648;52.114;5.424;2023-04-25T00:33:56;101174.22;;;4.60;87.94
79221;BME280;68648;52.114;5.424;2023-04-25T00:36:22;101184.50;;;4.63;88.12
79221;BME280;68648;52.114;5.424;2023-04-25T00:38:49;101174.69;;;4.66;87.71
79221;BME280;68648;52.114;5.424;2023-04-25T00:41:16;101179.09;;;4.66;87.50
79221;BME280;68648;52.114;5.424;2023-04-25T00:43:43;101177.31;;;4.66;87.67
79221;BME280;68648;52.114;5.424;2023-04-25T00:46:11;101177.31;;;4.66;87.61
79221;BME280;68648;52.114;5.424;2023-04-25T00:48:37;101177.31;;;4.66;88.03
79221;BME280;68648;52.114;5.424;2023-04-25T00:51:04;101184.34;;;4.66;87.50
79221;BME280;68648;52.114;5.424;2023-04-25T00:53:31;101181.63;;;4.67;87.47
79221;BME280;68648;52.114;5.424;2023-04-25T00:55:58;101179.84;;;4.68;87.53
79221;BME280;68648;52.114;5.424;2023-04-25T00:58:25;101177.97;;;4.70;87.39
79221;BME280;68648;52.114;5.424;2023-04-25T01:00:52;101172.75;;;4.70;87.58
79221;BME280;68648;52.114;5.424;2023-04-25T01:03:19;101178.81;;;4.70;87.28
79221;BME280;68648;52.114;5.424;2023-04-25T01:05:47;101178.16;;;4.67;87.21
79221;BME280;68648;52.114;5.424;2023-04-25T01:08:14;101179.09;;;4.66;87.96
79221;BME280;68648;52.114;5.424;2023-04-25T01:10:41;101172.44;;;4.60;87.23
79221;BME280;68648;52.114;5.424;2023-04-25T01:13:10;101178.91;;;4.54;87.65
79221;BME280;68648;52.114;5.424;2023-04-25T01:15:38;101180.19;;;4.47;87.74
79221;BME280;68648;52.114;5.424;2023-04-25T01:18:05;101193.63;;;4.41;87.33
79221;BME280;68648;52.114;5.424;2023-04-25T01:20:32;101183.53;;;4.35;87.74
79221;BME280;68648;52.114;5.424;2023-04-25T01:23:00;101185.66;;;4.29;87.28
79221;BME280;68648;52.114;5.424;2023-04-25T01:25:29;101188.63;;;4.22;87.25
79221;BME280;68648;52.114;5.424;2023-04-25T01:27:57;101191.72;;;4.15;87.65
79221;BME280;68648;52.114;5.424;2023-04-25T01:30:26;101192.97;;;4.08;87.40
79221;BME280;68648;52.114;5.424;2023-04-25T01:32:57;101198.59;;;4.02;87.58
79221;BME280;68648;52.114;5.424;2023-04-25T01:35:24;101205.84;;;3.97;87.63
79221;BME280;68648;52.114;5.424;2023-04-25T01:37:51;101204.34;;;3.93;87.74
79221;BME280;68648;52.114;5.424;2023-04-25T01:40:18;101208.06;;;3.89;87.51
79221;BME280;68648;52.114;5.424;2023-04-25T01:42:47;101203.09;;;3.84;87.45
79221;BME280;68648;52.114;5.424;2023-04-25T01:45:14;101207.66;;;3.80;87.18
79221;BME280;68648;52.114;5.424;2023-04-25T01:47:41;101204.34;;;3.77;87.57
79221;BME280;68648;52.114;5.424;2023-04-25T01:50:10;101208.94;;;3.73;87.79
79221;BME280;68648;52.114;5.424;2023-04-25T01:52:38;101207.41;;;3.69;87.75
79221;BME280;68648;52.114;5.424;2023-04-25T01:55:05;101217.19;;;3.66;87.80
79221;BME280;68648;52.114;5.424;2023-04-25T01:57:35;101216.59;;;3.61;87.64
79221;BME280;68648;52.114;5.424;2023-04-25T02:00:04;101222.19;;;3.55;87.88
79221;BME280;68648;52.114;5.424;2023-04-25T02:02:31;101218.13;;;3.49;88.01
79221;BME280;68648;52.114;5.424;2023-04-25T02:04:58;101224.44;;;3.45;87.88
79221;BME280;68648;52.114;5.424;2023-04-25T02:07:26;101221.25;;;3.40;88.17
79221;BME280;68648;52.114;5.424;2023-04-25T02:09:52;101228.25;;;3.39;87.81
79221;BME280;68648;52.114;5.424;2023-04-25T02:12:19;101231.28;;;3.32;87.79
79221;BME280;68648;52.114;5.424;2023-04-25T02:14:46;101228.13;;;3.25;87.58
79221;BME280;68648;52.114;5.424;2023-04-25T02:17:13;101231.94;;;3.20;88.00
79221;BME280;68648;52.114;5.424;2023-04-25T02:19:41;101233.94;;;3.14;88.27
79221;BME280;68648;52.114;5.424;2023-04-25T02:22:08;101234.09;;;3.11;88.05
79221;BME280;68648;52.114;5.424;2023-04-25T02:24:34;101238.66;;;3.08;88.19
79221;BME280;68648;52.114;5.424;2023-04-25T02:27:01;101232.81;;;3.03;88.22
79221;BME280;68648;52.114;5.424;2023-04-25T02:29:29;101229.53;;;2.99;88.22
79221;BME280;68648;52.114;5.424;2023-04-25T02:31:56;101229.69;;;2.96;87.99
79221;BME280;68648;52.114;5.424;2023-04-25T02:34:23;101232.63;;;2.90;88.07
79221;BME280;68648;52.114;5.424;2023-04-25T02:36:50;101231.88;;;2.88;88.22
79221;BME280;68648;52.114;5.424;2023-04-25T02:39:17;101236.16;;;2.89;88.12
79221;BME280;68648;52.114;5.424;2023-04-25T02:41:44;101234.56;;;2.87;88.46
79221;BME280;68648;52.114;5.424;2023-04-25T02:44:11;101236.25;;;2.88;88.31
79221;BME280;68648;52.114;5.424;2023-04-25T02:46:37;101241.47;;;2.88;88.59
79221;BME280;68648;52.114;5.424;2023-04-25T02:49:06;101233.56;;;2.89;88.54
79221;BME280;68648;52.114;5.424;2023-04-25T02:51:35;101237.00;;;2.90;88.51
79221;BME280;68648;52.114;5.424;2023-04-25T02:54:02;101236.75;;;2.94;88.58
79221;BME280;68648;52.114;5.424;2023-04-25T02:56:29;101240.81;;;3.00;88.33
79221;BME280;68648;52.114;5.424;2023-04-25T02:58:56;101231.13;;;3.02;88.70
79221;BME280;68648;52.114;5.424;2023-04-25T03:01:23;101243.13;;;3.06;88.38
79221;BME280;68648;52.114;5.424;2023-04-25T03:03:50;101241.16;;;3.09;88.38
79221;BME280;68648;52.114;5.424;2023-04-25T03:06:17;101242.88;;;3.10;88.21
79221;BME280;68648;52.114;5.424;2023-04-25T03:08:43;101243.63;;;3.12;88.53
79221;BME280;68648;52.114;5.424;2023-04-25T03:11:13;101239.16;;;3.14;88.69
79221;BME280;68648;52.114;5.424;2023-04-25T03:13:42;101240.94;;;3.14;88.83
79221;BME280;68648;52.114;5.424;2023-04-25T03:16:09;101245.41;;;3.12;88.44
79221;BME280;68648;52.114;5.424;2023-04-25T03:18:36;101242.88;;;3.10;88.62
79221;BME280;68648;52.114;5.424;2023-04-25T03:21:03;101241.34;;;3.06;88.68
79221;BME280;68648;52.114;5.424;2023-04-25T03:23:30;101251.13;;;3.03;88.67
79221;BME280;68648;52.114;5.424;2023-04-25T03:25:56;101250.34;;;3.01;88.71
79221;BME280;68648;52.114;5.424;2023-04-25T03:28:23;101251.34;;;2.98;88.43
79221;BME280;68648;52.114;5.424;2023-04-25T03:30:50;101257.59;;;2.96;88.70
79221;BME280;68648;52.114;5.424;2023-04-25T03:33:17;101254.13;;;2.95;88.49
79221;BME280;68648;52.114;5.424;2023-04-25T03:35:43;101262.66;;;2.99;88.56
79221;BME280;68648;52.114;5.424;2023-04-25T03:38:10;101259.81;;;3.03;88.75
79221;BME280;68648;52.114;5.424;2023-04-25T03:40:37;101260.44;;;3.08;88.62
79221;BME280;68648;52.114;5.424;2023-04-25T03:43:04;101264.38;;;3.15;88.72
79221;BME280;68648;52.114;5.424;2023-04-25T03:45:31;101264.06;;;3.22;88.49
79221;BME280;68648;52.114;5.424;2023-04-25T03:47:58;101268.97;;;3.28;88.64
79221;BME280;68648;52.114;5.424;2023-04-25T03:50:25;101274.72;;;3.34;88.53
79221;BME280;68648;52.114;5.424;2023-04-25T03:52:51;101278.59;;;3.43;88.44
79221;BME280;68648;52.114;5.424;2023-04-25T03:55:18;101282.53;;;3.51;88.48
79221;BME280;68648;52.114;5.424;2023-04-25T03:57:45;101271.63;;;3.59;88.35
79221;BME280;68648;52.114;5.424;2023-04-25T04:00:12;101273.75;;;3.68;88.06
79221;BME280;68648;52.114;5.424;2023-04-25T04:02:39;101269.94;;;3.74;87.85
79221;BME280;68648;52.114;5.424;2023-04-25T04:05:10;101273.16;;;3.79;87.68
79221;BME280;68648;52.114;5.424;2023-04-25T04:07:39;101281.63;;;3.84;87.79
79221;BME280;68648;52.114;5.424;2023-04-25T04:10:07;101276.97;;;3.89;87.32
79221;BME280;68648;52.114;5.424;2023-04-25T04:12:34;101282.94;;;3.91;87.59
79221;BME280;68648;52.114;5.424;2023-04-25T04:15:03;101291.47;;;3.95;87.53
79221;BME280;68648;52.114;5.424;2023-04-25T04:17:30;101297.41;;;3.98;87.03
79221;BME280;68648;52.114;5.424;2023-04-25T04:19:57;101289.47;;;4.00;86.65
79221;BME280;68648;52.114;5.424;2023-04-25T04:22:24;101289.38;;;4.01;86.44
79221;BME280;68648;52.114;5.424;2023-04-25T04:24:51;101291.06;;;4.02;86.68
79221;BME280;68648;52.114;5.424;2023-04-25T04:27:19;101293.31;;;4.08;86.09
79221;BME280;68648;52.114;5.424;2023-04-25T04:29:46;101300.09;;;4.12;85.47
79221;BME280;68648;52.114;5.424;2023-04-25T04:32:14;101289.53;;;4.14;85.60
79221;BME280;68648;52.114;5.424;2023-04-25T04:34:40;101296.38;;;4.16;85.80
79221;BME280;68648;52.114;5.424;2023-04-25T04:37:07;101303.22;;;4.19;85.73
79221;BME280;68648;52.114;5.424;2023-04-25T04:39:34;101303.97;;;4.21;85.35
79221;BME280;68648;52.114;5.424;2023-04-25T04:42:00;101303.06;;;4.22;85.08
79221;BME280;68648;52.114;5.424;2023-04-25T04:44:31;101308.94;;;4.26;85.16
79221;BME280;68648;52.114;5.424;2023-04-25T04:47:05;101307.84;;;4.30;84.55
79221;BME280;68648;52.114;5.424;2023-04-25T04:49:32;101315.44;;;4.34;83.84
79221;BME280;68648;52.114;5.424;2023-04-25T04:52:02;101323.22;;;4.36;83.60
79221;BME280;68648;52.114;5.424;2023-04-25T04:54:28;101326.50;;;4.39;83.58
79221;BME280;68648;52.114;5.424;2023-04-25T04:56:55;101310.59;;;4.42;83.79
79221;BME280;68648;52.114;5.424;2023-04-25T04:59:24;101321.66;;;4.47;83.41
79221;BME280;68648;52.114;5.424;2023-04-25T05:01:52;101327.66;;;4.49;82.96
79221;BME280;68648;52.114;5.424;2023-04-25T05:04:19;101330.88;;;4.54;83.46
79221;BME280;68648;52.114;5.424;2023-04-25T05:06:45;101331.59;;;4.56;82.88
79221;BME280;68648;52.114;5.424;2023-04-25T05:09:14;101338.53;;;4.57;83.15
79221;BME280;68648;52.114;5.424;2023-04-25T05:11:41;101345.38;;;4.60;82.68
79221;BME280;68648;52.114;5.424;2023-04-25T05:14:08;101348.84;;;4.61;82.72
79221;BME280;68648;52.114;5.424;2023-04-25T05:16:34;101348.94;;;4.59;83.42
79221;BME280;68648;52.114;5.424;2023-04-25T05:19:01;101352.41;;;4.60;83.32
79221;BME280;68648;52.114;5.424;2023-04-25T05:21:28;101361.19;;;4.58;83.21
79221;BME280;68648;52.114;5.424;2023-04-25T05:23:55;101356.81;;;4.59;82.79
79221;BME280;68648;52.114;5.424;2023-04-25T05:26:22;101365.34;;;4.63;83.05
79221;BME280;68648;52.114;5.424;2023-04-25T05:28:51;101361.63;;;4.67;82.30
79221;BME280;68648;52.114;5.424;2023-04-25T05:31:18;101365.66;;;4.72;82.19
79221;BME280;68648;52.114;5.424;2023-04-25T05:33:45;101361.00;;;4.77;82.18
79221;BME280;68648;52.114;5.424;2023-04-25T05:36:12;101367.59;;;4.84;81.85
79221;BME280;68648;52.114;5.424;2023-04-25T05:38:40;101366.28;;;4.91;81.73
79221;BME280;68648;52.114;5.424;2023-04-25T05:41:07;101374.56;;;5.00;81.64
79221;BME280;68648;52.114;5.424;2023-04-25T05:43:33;101367.25;;;5.05;81.12
79221;BME280;68648;52.114;5.424;2023-04-25T05:46:00;101365.97;;;5.12;80.76
79221;BME280;68648;52.114;5.424;2023-04-25T05:48:27;101368.97;;;5.20;80.24
79221;BME280;68648;52.114;5.424;2023-04-25T05:50:53;101366.91;;;5.25;79.93
79221;BME280;68648;52.114;5.424;2023-04-25T05:53:20;101377.81;;;5.33;80.23
79221;BME280;68648;52.114;5.424;2023-04-25T05:55:48;101372.09;;;5.41;79.66
79221;BME280;68648;52.114;5.424;2023-04-25T05:58:14;101385.63;;;5.49;79.19
79221;BME280;68648;52.114;5.424;2023-04-25T06:00:41;101390.28;;;5.58;79.35
79221;BME280;68648;52.114;5.424;2023-04-25T06:03:08;101385.72;;;5.61;79.08
79221;BME280;68648;52.114;5.424;2023-04-25T06:05:36;101392.47;;;5.66;78.56
79221;BME280;68648;52.114;5.424;2023-04-25T06:08:03;101393.75;;;5.73;78.98
79221;BME280;68648;52.114;5.424;2023-04-25T06:10:29;101398.75;;;5.77;77.92
79221;BME280;68648;52.114;5.424;2023-04-25T06:12:56;101404.47;;;5.84;78.39
79221;BME280;68648;52.114;5.424;2023-04-25T06:15:23;101413.50;;;5.94;77.38
79221;BME280;68648;52.114;5.424;2023-04-25T06:17:54;101407.03;;;6.00;76.86
79221;BME280;68648;52.114;5.424;2023-04-25T06:20:21;101413.66;;;6.05;77.19
79221;BME280;68648;52.114;5.424;2023-04-25T06:22:51;101408.13;;;6.10;75.23
79221;BME280;68648;52.114;5.424;2023-04-25T06:25:18;101411.50;;;6.12;75.96
79221;BME280;68648;52.114;5.424;2023-04-25T06:27:44;101412.91;;;6.17;75.66
79221;BME280;68648;52.114;5.424;2023-04-25T06:30:11;101419.00;;;6.18;74.65
79221;BME280;68648;52.114;5.424;2023-04-25T06:32:39;101408.69;;;6.15;74.65
79221;BME280;68648;52.114;5.424;2023-04-25T06:35:06;101419.56;;;6.23;74.83
79221;BME280;68648;52.114;5.424;2023-04-25T06:37:32;101416.34;;;6.46;74.27
79221;BME280;68648;52.114;5.424;2023-04-25T06:39:59;101415.03;;;6.93;73.36
79221;BME280;68648;52.114;5.424;2023-04-25T06:42:27;101418.38;;;7.22;71.66
79221;BME280;68648;52.114;5.424;2023-04-25T06:44:56;101420.91;;;7.23;71.28
79221;BME280;68648;52.114;5.424;2023-04-25T06:47:23;101430.13;;;7.16;71.61
79221;BME280;68648;52.114;5.424;2023-04-25T06:49:49;101423.25;;;7.01;71.32
79221;BME280;68648;52.114;5.424;2023-04-25T06:52:16;101432.94;;;7.00;71.68
79221;BME280;68648;52.114;5.424;2023-04-25T06:54:44;101432.69;;;6.91;70.85
79221;BME280;68648;52.114;5.424;2023-04-25T06:57:11;101433.00;;;6.86;71.26
79221;BME280;68648;52.114;5.424;2023-04-25T06:59:38;101433.84;;;6.87;70.76
79221;BME280;68648;52.114;5.424;2023-04-25T07:02:05;101440.13;;;6.84;70.79
79221;BME280;68648;52.114;5.424;2023-04-25T07:04:32;101441.91;;;6.98;70.68
79221;BME280;68648;52.114;5.424;2023-04-25T07:06:59;101442.56;;;7.14;68.17
79221;BME280;68648;52.114;5.424;2023-04-25T07:09:27;101445.69;;;7.07;69.20
79221;BME280;68648;52.114;5.424;2023-04-25T07:11:54;101445.59;;;7.08;69.58
79221;BME280;68648;52.114;5.424;2023-04-25T07:14:20;101448.63;;;7.02;69.15
79221;BME280;68648;52.114;5.424;2023-04-25T07:16:47;101452.81;;;6.92;68.54
79221;BME280;68648;52.114;5.424;2023-04-25T07:19:13;101450.94;;;6.94;69.61
79221;BME280;68648;52.114;5.424;2023-04-25T07:21:39;101460.16;;;6.87;68.65
79221;BME280;68648;52.114;5.424;2023-04-25T07:24:06;101467.09;;;6.88;68.36
79221;BME280;68648;52.114;5.424;2023-04-25T07:26:33;101465.25;;;7.02;67.24
79221;BME280;68648;52.114;5.424;2023-04-25T07:28:59;101477.03;;;7.36;67.47
79221;BME280;68648;52.114;5.424;2023-04-25T07:31:26;101471.72;;;7.76;66.61
79221;BME280;68648;52.114;5.424;2023-04-25T07:33:53;101473.28;;;8.04;64.61
79221;BME280;68648;52.114;5.424;2023-04-25T07:36:19;101473.28;;;8.04;65.77
79221;BME280;68648;52.114;5.424;2023-04-25T07:38:45;101472.44;;;8.16;63.74
79221;BME280;68648;52.114;5.424;2023-04-25T07:41:12;101468.09;;;8.15;63.41
79221;BME280;68648;52.114;5.424;2023-04-25T07:43:39;101481.19;;;8.17;63.43
79221;BME280;68648;52.114;5.424;2023-04-25T07:46:05;101475.72;;;8.32;62.99
79221;BME280;68648;52.114;5.424;2023-04-25T07:48:32;101484.31;;;8.47;63.03
79221;BME280;68648;52.114;5.424;2023-04-25T07:50:58;101483.31;;;8.37;62.38
79221;BME280;68648;52.114;5.424;2023-04-25T07:53:25;101495.81;;;8.46;61.54
79221;BME280;68648;52.114;5.424;2023-04-25T07:55:52;101483.50;;;8.34;60.57
79221;BME280;68648;52.114;5.424;2023-04-25T07:58:19;101500.81;;;8.25;60.24
79221;BME280;68648;52.114;5.424;2023-04-25T08:00:48;101495.97;;;7.94;59.82
79221;BME280;68648;52.114;5.424;2023-04-25T08:03:14;101495.75;;;7.84;59.39
79221;BME280;68648;52.114;5.424;2023-04-25T08:05:41;101499.53;;;7.80;60.22
79221;BME280;68648;52.114;5.424;2023-04-25T08:08:08;101501.44;;;8.03;60.83
79221;BME280;68648;52.114;5.424;2023-04-25T08:10:35;101513.34;;;8.22;58.74
79221;BME280;68648;52.114;5.424;2023-04-25T08:13:02;101515.66;;;8.14;57.58
79221;BME280;68648;52.114;5.424;2023-04-25T08:15:28;101516.72;;;8.24;58.70
79221;BME280;68648;52.114;5.424;2023-04-25T08:17:55;101513.47;;;8.33;57.73
79221;BME280;68648;52.114;5.424;2023-04-25T08:20:22;101519.22;;;8.63;58.63
79221;BME280;68648;52.114;5.424;2023-04-25T08:22:49;101519.91;;;8.78;57.68
79221;BME280;68648;52.114;5.424;2023-04-25T08:25:15;101529.94;;;8.86;57.94
79221;BME280;68648;52.114;5.424;2023-04-25T08:27:43;101541.09;;;8.53;56.82
79221;BME280;68648;52.114;5.424;2023-04-25T08:30:11;101548.22;;;7.87;60.95
79221;BME280;68648;52.114;5.424;2023-04-25T08:32:38;101543.69;;;7.37;61.79
79221;BME280;68648;52.114;5.424;2023-04-25T08:35:05;101546.34;;;7.10;63.46
79221;BME280;68648;52.114;5.424;2023-04-25T08:37:41;101557.34;;;7.02;63.80
79221;BME280;68648;52.114;5.424;2023-04-25T08:40:11;101560.25;;;7.12;64.59
79221;BME280;68648;52.114;5.424;2023-04-25T08:42:46;101551.44;;;7.26;64.80
79221;BME280;68648;52.114;5.424;2023-04-25T08:45:14;101560.63;;;7.33;62.77
79221;BME280;68648;52.114;5.424;2023-04-25T08:47:54;101561.63;;;7.45;63.26
79221;BME280;68648;52.114;5.424;2023-04-25T08:50:32;101559.63;;;7.48;61.25
79221;BME280;68648;52.114;5.424;2023-04-25T08:53:13;101561.94;;;7.40;60.80
79221;BME280;68648;52.114;5.424;2023-04-25T08:55:47;101574.81;;;7.45;60.61
79221;BME280;68648;52.114;5.424;2023-04-25T08:58:45;101572.13;;;7.84;60.12
79221;BME280;68648;52.114;5.424;2023-04-25T09:01:24;101579.47;;;8.06;60.49
79221;BME280;68648;52.114;5.424;2023-04-25T09:03:51;101579.06;;;8.50;58.79
79221;BME280;68648;52.114;5.424;2023-04-25T09:06:21;101585.16;;;8.76;58.31
79221;BME280;68648;52.114;5.424;2023-04-25T09:08:49;101589.16;;;8.82;58.37
79221;BME280;68648;52.114;5.424;2023-04-25T09:11:16;101598.59;;;8.97;56.11
79221;BME280;68648;52.114;5.424;2023-04-25T09:13:45;101600.25;;;9.23;56.58
79221;BME280;68648;52.114;5.424;2023-04-25T09:16:12;101600.72;;;9.28;55.74
79221;BME280;68648;52.114;5.424;2023-04-25T09:18:44;101597.13;;;9.77;54.89
79221;BME280;68648;52.114;5.424;2023-04-25T09:21:14;101599.53;;;10.15;54.01
79221;BME280;68648;52.114;5.424;2023-04-25T09:23:46;101605.25;;;10.33;52.96
79221;BME280;68648;52.114;5.424;2023-04-25T09:26:15;101598.28;;;10.08;49.34
79221;BME280;68648;52.114;5.424;2023-04-25T09:28:43;101599.34;;;9.35;50.40
79221;BME280;68648;52.114;5.424;2023-04-25T09:31:10;101617.97;;;8.85;51.38
79221;BME280;68648;52.114;5.424;2023-04-25T09:33:38;101611.53;;;8.63;52.78
79221;BME280;68648;52.114;5.424;2023-04-25T09:36:07;101614.63;;;8.57;54.94
79221;BME280;68648;52.114;5.424;2023-04-25T09:38:41;101616.72;;;8.52;52.20
79221;BME280;68648;52.114;5.424;2023-04-25T09:41:09;101618.28;;;8.80;54.15
79221;BME280;68648;52.114;5.424;2023-04-25T09:43:37;101616.50;;;9.17;54.50
79221;BME280;68648;52.114;5.424;2023-04-25T09:46:08;101626.41;;;9.26;53.63
79221;BME280;68648;52.114;5.424;2023-04-25T09:48:36;101629.81;;;8.54;56.09
79221;BME280;68648;52.114;5.424;2023-04-25T09:53:29;101645.63;;;7.89;58.80
79221;BME280;68648;52.114;5.424;2023-04-25T09:55:57;101651.09;;;7.59;59.37
79221;BME280;68648;52.114;5.424;2023-04-25T09:58:29;101657.06;;;7.75;58.79
79221;BME280;68648;52.114;5.424;2023-04-25T10:01:00;101650.88;;;7.89;57.98
79221;BME280;68648;52.114;5.424;2023-04-25T10:03:33;101671.34;;;7.98;57.99
79221;BME280;68648;52.114;5.424;2023-04-25T10:06:04;101672.75;;;8.16;57.51
79221;BME280;68648;52.114;5.424;2023-04-25T10:08:35;101671.31;;;8.25;57.17
79221;BME280;68648;52.114;5.424;2023-04-25T10:11:08;101672.31;;;8.36;57.15
79221;BME280;68648;52.114;5.424;2023-04-25T10:13:35;101672.75;;;8.56;57.09
79221;BME280;68648;52.114;5.424;2023-04-25T10:16:04;101672.63;;;8.95;57.06
79221;BME280;68648;52.114;5.424;2023-04-25T10:18:32;101666.44;;;9.33;56.70
79221;BME280;68648;52.114;5.424;2023-04-25T10:21:04;101671.13;;;9.53;55.13
79221;BME280;68648;52.114;5.424;2023-04-25T10:23:31;101672.31;;;9.73;52.39
79221;BME280;68648;52.114;5.424;2023-04-25T10:25:58;101657.13;;;9.88;51.46
79221;BME280;68648;52.114;5.424;2023-04-25T10:28:26;101667.03;;;10.08;47.49
79221;BME280;68648;52.114;5.424;2023-04-25T10:33:40;101657.16;;;9.99;48.95
79221;BME280;68648;52.114;5.424;2023-04-25T10:36:19;101667.88;;;10.08;47.37
79221;BME280;68648;52.114;5.424;2023-04-25T10:38:48;101668.63;;;10.34;46.87
79221;BME280;68648;52.114;5.424;2023-04-25T10:41:19;101664.06;;;10.36;45.58
79221;BME280;68648;52.114;5.424;2023-04-25T10:43:48;101665.94;;;9.99;46.12
79221;BME280;68648;52.114;5.424;2023-04-25T10:46:28;101668.59;;;9.99;46.09
79221;BME280;68648;52.114;5.424;2023-04-25T10:49:00;101663.16;;;10.25;46.61
79221;BME280;68648;52.114;5.424;2023-04-25T10:51:28;101664.19;;;10.46;45.97
79221;BME280;68648;52.114;5.424;2023-04-25T10:54:09;101657.63;;;10.85;45.48
79221;BME280;68648;52.114;5.424;2023-04-25T11:01:38;101657.38;;;10.99;46.32
79221;BME280;68648;52.114;5.424;2023-04-25T11:04:06;101670.25;;;11.04;45.62
79221;BME280;68648;52.114;5.424;2023-04-25T11:06:46;101661.72;;;11.00;45.86
79221;BME280;68648;52.114;5.424;2023-04-25T11:09:29;101659.31;;;10.97;45.95
79221;BME280;68648;52.114;5.424;2023-04-25T11:11:57;101668.19;;;10.63;46.28
79221;BME280;68648;52.114;5.424;2023-04-25T11:14:24;101672.00;;;10.36;48.52
79221;BME280;68648;52.114;5.424;2023-04-25T11:16:55;101683.97;;;9.34;52.81
79221;BME280;68648;52.114;5.424;2023-04-25T11:19:26;101698.19;;;8.69;56.12
79221;BME280;68648;52.114;5.424;2023-04-25T11:22:00;101689.00;;;8.88;57.15
79221;BME280;68648;52.114;5.424;2023-04-25T11:24:27;101702.50;;;8.96;57.30
79221;BME280;68648;52.114;5.424;2023-04-25T11:26:54;101705.66;;;8.63;58.34
79221;BME280;68648;52.114;5.424;2023-04-25T11:29:28;101702.72;;;8.42;58.81
79221;BME280;68648;52.114;5.424;2023-04-25T11:31:55;101704.41;;;8.16;59.61
79221;BME280;68648;52.114;5.424;2023-04-25T11:34:27;101716.47;;;7.93;59.91
79221;BME280;68648;52.114;5.424;2023-04-25T11:36:57;101707.53;;;7.82;61.30
79221;BME280;68648;52.114;5.424;2023-04-25T11:39:24;101709.56;;;7.78;59.82
79221;BME280;68648;52.114;5.424;2023-04-25T11:41:51;101710.50;;;7.77;59.65
79221;BME280;68648;52.114;5.424;2023-04-25T11:44:20;101714.03;;;7.90;59.17
79221;BME280;68648;52.114;5.424;2023-04-25T11:46:47;101721.03;;;8.04;58.63
79221;BME280;68648;52.114;5.424;2023-04-25T11:49:16;101722.25;;;8.25;57.15
79221;BME280;68648;52.114;5.424;2023-04-25T11:51:46;101728.78;;;8.59;56.46
79221;BME280;68648;52.114;5.424;2023-04-25T11:54:14;101714.00;;;8.95;54.37
79221;BME280;68648;52.114;5.424;2023-04-25T11:56:41;101713.50;;;9.75;52.08
79221;BME280;68648;52.114;5.424;2023-04-25T11:59:08;101722.09;;;10.03;50.72
79221;BME280;68648;52.114;5.424;2023-04-25T12:01:38;101718.59;;;10.26;50.38
79221;BME280;68648;52.114;5.424;2023-04-25T12:04:15;101721.72;;;10.55;48.65
79221;BME280;68648;52.114;5.424;2023-04-25T12:06:46;101715.13;;;10.94;47.50
79221;BME280;68648;52.114;5.424;2023-04-25T12:09:19;101711.53;;;11.06;47.12
79221;BME280;68648;52.114;5.424;2023-04-25T12:11:52;101716.22;;;11.25;45.70
79221;BME280;68648;52.114;5.424;2023-04-25T12:14:48;101713.44;;;10.71;48.31
79221;BME280;68648;52.114;5.424;2023-04-25T12:17:16;101721.22;;;10.26;46.54
79221;BME280;68648;52.114;5.424;2023-04-25T12:19:43;101720.38;;;9.78;48.17
79221;BME280;68648;52.114;5.424;2023-04-25T12:22:23;101725.22;;;9.84;48.86
79221;BME280;68648;52.114;5.424;2023-04-25T12:24:51;101736.72;;;10.20;48.34
79221;BME280;68648;52.114;5.424;2023-04-25T12:27:19;101727.53;;;10.82;44.87
79221;BME280;68648;52.114;5.424;2023-04-25T12:29:56;101732.25;;;11.01;45.56
79221;BME280;68648;52.114;5.424;2023-04-25T12:32:23;101738.84;;;11.07;44.77
79221;BME280;68648;52.114;5.424;2023-04-25T12:34:51;101734.41;;;11.07;44.86
79221;BME280;68648;52.114;5.424;2023-04-25T12:37:18;101749.44;;;11.07;44.64
79221;BME280;68648;52.114;5.424;2023-04-25T12:39:45;101747.75;;;10.95;44.54
79221;BME280;68648;52.114;5.424;2023-04-25T12:42:12;101732.97;;;11.14;44.68
79221;BME280;68648;52.114;5.424;2023-04-25T12:44:39;101733.69;;;11.39;43.76
79221;BME280;68648;52.114;5.424;2023-04-25T12:47:06;101738.38;;;11.46;43.85
79221;BME280;68648;52.114;5.424;2023-04-25T12:49:33;101738.34;;;11.80;42.05
79221;BME280;68648;52.114;5.424;2023-04-25T12:52:00;101740.94;;;12.02;43.21
79221;BME280;68648;52.114;5.424;2023-04-25T12:54:27;101730.66;;;12.09;41.35
79221;BME280;68648;52.114;5.424;2023-04-25T12:56:54;101736.75;;;12.00;42.32
79221;BME280;68648;52.114;5.424;2023-04-25T12:59:21;101733.59;;;13.10;39.75
79221;BME280;68648;52.114;5.424;2023-04-25T13:01:47;101735.41;;;13.99;37.92
79221;BME280;68648;52.114;5.424;2023-04-25T13:04:15;101730.38;;;14.63;35.87
79221;BME280;68648;52.114;5.424;2023-04-25T13:06:42;101726.63;;;14.56;36.62
79221;BME280;68648;52.114;5.424;2023-04-25T13:09:09;101728.97;;;15.16;35.14
79221;BME280;68648;52.114;5.424;2023-04-25T13:11:37;101729.78;;;14.79;37.82
79221;BME280;68648;52.114;5.424;2023-04-25T13:14:04;101729.94;;;14.00;37.56